sensor_id;sensor_type;location;lat;lon;timestamp;pressure;altitude;pressure_sealevel;temperature;humidity
75536;BME280;64119;52.070;20.804;2023-02-28T00:01:27;101930.90;;;-3.47;75.74
75536;BME280;64119;52.070;20.804;2023-02-28T00:03:56;101927.65;;;-3.48;72.40
75536;BME280;64119;52.070;20.804;2023-02-28T00:06:24;101931.04;;;-3.50;73.00
75536;BME280;64119;52.070;20.804;2023-02-28T00:08:52;101933.14;;;-3.55;73.28
75536;BME280;64119;52.070;20.804;2023-02-28T00:11:20;101934.41;;;-3.65;74.59
75536;BME280;64119;52.070;20.804;2023-02-28T00:13:48;101940.95;;;-3.73;75.74
75536;BME280;64119;52.070;20.804;2023-02-28T00:16:18;101942.08;;;-3.76;73.19
75536;BME280;64119;52.070;20.804;2023-02-28T00:18:47;101943.40;;;-3.74;72.62
75536;BME280;64119;52.070;20.804;2023-02-28T00:21:17;101942.77;;;-3.80;73.47
75536;BME280;64119;52.070;20.804;2023-02-28T00:23:45;101943.91;;;-3.87;73.78
75536;BME280;64119;52.070;20.804;2023-02-28T00:26:13;101940.45;;;-3.92;75.70
75536;BME280;64119;52.070;20.804;2023-02-28T00:28:42;101939.09;;;-3.97;76.68
75536;BME280;64119;52.070;20.804;2023-02-28T00:31:10;101938.20;;;-4.01;76.58
75536;BME280;64119;52.070;20.804;2023-02-28T00:33:38;101940.44;;;-4.05;75.92
75536;BME280;64119;52.070;20.804;2023-02-28T00:36:08;101941.68;;;-4.11;77.74
75536;BME280;64119;52.070;20.804;2023-02-28T00:38:37;101944.58;;;-4.15;76.17
75536;BME280;64119;52.070;20.804;2023-02-28T00:41:06;101944.92;;;-4.15;75.51
75536;BME280;64119;52.070;20.804;2023-02-28T00:43:36;101945.10;;;-4.19;76.05
75536;BME280;64119;52.070;20.804;2023-02-28T00:46:04;101944.71;;;-4.23;75.23
75536;BME280;64119;52.070;20.804;2023-02-28T00:48:32;101941.48;;;-4.24;75.53
75536;BME280;64119;52.070;20.804;2023-02-28T00:51:00;101945.54;;;-4.22;76.39
75536;BME280;64119;52.070;20.804;2023-02-28T00:53:29;101946.83;;;-4.19;75.93
75536;BME280;64119;52.070;20.804;2023-02-28T00:55:57;101946.26;;;-4.23;76.72
75536;BME280;64119;52.070;20.804;2023-02-28T00:58:26;101948.02;;;-4.28;77.83
75536;BME280;64119;52.070;20.804;2023-02-28T01:00:54;101947.42;;;-4.40;79.73
75536;BME280;64119;52.070;20.804;2023-02-28T01:03:22;101944.18;;;-4.46;77.33
75536;BME280;64119;52.070;20.804;2023-02-28T01:05:51;101942.27;;;-4.45;76.95
75536;BME280;64119;52.070;20.804;2023-02-28T01:08:20;101941.08;;;-4.46;77.73
75536;BME280;64119;52.070;20.804;2023-02-28T01:10:50;101942.24;;;-4.54;78.88
75536;BME280;64119;52.070;20.804;2023-02-28T01:13:18;101944.86;;;-4.65;77.54
75536;BME280;64119;52.070;20.804;2023-02-28T01:15:52;101947.10;;;-4.64;75.82
75536;BME280;64119;52.070;20.804;2023-02-28T01:18:21;101946.01;;;-4.63;77.72
75536;BME280;64119;52.070;20.804;2023-02-28T01:20:48;101942.70;;;-4.62;75.82
75536;BME280;64119;52.070;20.804;2023-02-28T01:23:16;101944.77;;;-4.57;74.75
75536;BME280;64119;52.070;20.804;2023-02-28T01:25:44;101945.26;;;-4.52;75.03
75536;BME280;64119;52.070;20.804;2023-02-28T01:28:12;101944.88;;;-4.56;75.82
75536;BME280;64119;52.070;20.804;2023-02-28T01:30:40;101945.17;;;-4.64;76.62
75536;BME280;64119;52.070;20.804;2023-02-28T01:33:07;101944.89;;;-4.71;75.75
75536;BME280;64119;52.070;20.804;2023-02-28T01:35:36;101942.66;;;-4.66;75.82
75536;BME280;64119;52.070;20.804;2023-02-28T01:38:04;101943.94;;;-4.63;77.71
75536;BME280;64119;52.070;20.804;2023-02-28T01:40:48;101946.05;;;-4.64;78.25
75536;BME280;64119;52.070;20.804;2023-02-28T01:43:23;101945.55;;;-4.65;77.74
75536;BME280;64119;52.070;20.804;2023-02-28T01:45:53;101945.81;;;-4.62;76.47
75536;BME280;64119;52.070;20.804;2023-02-28T01:48:26;101950.39;;;-4.60;76.94
75536;BME280;64119;52.070;20.804;2023-02-28T01:50:59;101950.97;;;-4.67;77.53
75536;BME280;64119;52.070;20.804;2023-02-28T01:53:34;101956.06;;;-4.75;80.08
75536;BME280;64119;52.070;20.804;2023-02-28T01:56:05;101952.80;;;-4.80;78.22
75536;BME280;64119;52.070;20.804;2023-02-28T01:58:35;101950.94;;;-4.81;80.27
75536;BME280;64119;52.070;20.804;2023-02-28T02:01:04;101949.44;;;-4.87;79.26
75536;BME280;64119;52.070;20.804;2023-02-28T02:03:35;101950.75;;;-4.91;80.48
75536;BME280;64119;52.070;20.804;2023-02-28T02:06:03;101954.99;;;-4.93;80.89
75536;BME280;64119;52.070;20.804;2023-02-28T02:08:30;101951.71;;;-4.93;79.20
75536;BME280;64119;52.070;20.804;2023-02-28T02:11:00;101955.08;;;-4.96;79.88
75536;BME280;64119;52.070;20.804;2023-02-28T02:17:12;101951.42;;;-5.05;79.98
75536;BME280;64119;52.070;20.804;2023-02-28T02:20:08;101945.08;;;-5.11;80.83
75536;BME280;64119;52.070;20.804;2023-02-28T02:42:16;101952.65;;;-4.75;80.22
75536;BME280;64119;52.070;20.804;2023-02-28T02:44:50;101952.52;;;-4.82;81.26
75536;BME280;64119;52.070;20.804;2023-02-28T02:47:26;101954.46;;;-4.88;80.16
75536;BME280;64119;52.070;20.804;2023-02-28T02:49:58;101953.86;;;-4.91;80.74
75536;BME280;64119;52.070;20.804;2023-02-28T02:52:34;101959.80;;;-4.98;80.98
75536;BME280;64119;52.070;20.804;2023-02-28T02:55:05;101960.77;;;-5.01;80.98
75536;BME280;64119;52.070;20.804;2023-02-28T02:57:38;101964.05;;;-5.06;82.57
75536;BME280;64119;52.070;20.804;2023-02-28T03:00:08;101963.10;;;-5.09;81.77
75536;BME280;64119;52.070;20.804;2023-02-28T03:02:38;101963.08;;;-5.08;81.15
75536;BME280;64119;52.070;20.804;2023-02-28T03:05:14;101967.00;;;-5.12;80.88
75536;BME280;64119;52.070;20.804;2023-02-28T03:07:45;101966.27;;;-5.11;80.16
75536;BME280;64119;52.070;20.804;2023-02-28T03:15:41;101965.06;;;-5.21;81.96
75536;BME280;64119;52.070;20.804;2023-02-28T03:18:23;101961.61;;;-5.21;81.49
75536;BME280;64119;52.070;20.804;2023-02-28T03:21:06;101964.23;;;-5.23;80.58
75536;BME280;64119;52.070;20.804;2023-02-28T03:23:58;101961.74;;;-5.20;79.51
75536;BME280;64119;52.070;20.804;2023-02-28T03:26:31;101960.29;;;-5.18;78.94
75536;BME280;64119;52.070;20.804;2023-02-28T03:29:05;101960.94;;;-5.22;80.79
75536;BME280;64119;52.070;20.804;2023-02-28T03:31:38;101965.10;;;-5.33;81.99
75536;BME280;64119;52.070;20.804;2023-02-28T03:34:14;101967.60;;;-5.36;80.21
75536;BME280;64119;52.070;20.804;2023-02-28T03:36:53;101968.18;;;-5.32;79.11
75536;BME280;64119;52.070;20.804;2023-02-28T03:39:28;101973.15;;;-5.31;79.47
75536;BME280;64119;52.070;20.804;2023-02-28T03:42:00;101972.69;;;-5.33;80.12
75536;BME280;64119;52.070;20.804;2023-02-28T03:47:15;101973.14;;;-5.42;82.71
75536;BME280;64119;52.070;20.804;2023-02-28T03:49:56;101979.69;;;-5.48;81.77
75536;BME280;64119;52.070;20.804;2023-02-28T03:52:30;101980.00;;;-5.52;81.88
75536;BME280;64119;52.070;20.804;2023-02-28T03:55:02;101980.27;;;-5.50;81.19
75536;BME280;64119;52.070;20.804;2023-02-28T04:00:27;101983.48;;;-5.48;81.78
75536;BME280;64119;52.070;20.804;2023-02-28T04:02:57;101985.50;;;-5.46;81.62
75536;BME280;64119;52.070;20.804;2023-02-28T04:05:25;101984.71;;;-5.43;80.19
75536;BME280;64119;52.070;20.804;2023-02-28T04:07:54;101981.67;;;-5.40;79.69
75536;BME280;64119;52.070;20.804;2023-02-28T04:10:21;101983.98;;;-5.42;80.57
75536;BME280;64119;52.070;20.804;2023-02-28T04:12:49;101983.04;;;-5.39;79.42
75536;BME280;64119;52.070;20.804;2023-02-28T04:15:17;101983.48;;;-5.36;78.49
75536;BME280;64119;52.070;20.804;2023-02-28T04:17:45;101983.98;;;-5.31;78.65
75536;BME280;64119;52.070;20.804;2023-02-28T04:20:12;101982.54;;;-5.28;78.19
75536;BME280;64119;52.070;20.804;2023-02-28T04:22:40;101980.41;;;-5.26;80.08
75536;BME280;64119;52.070;20.804;2023-02-28T04:25:08;101985.20;;;-5.31;80.94
75536;BME280;64119;52.070;20.804;2023-02-28T04:27:36;101984.48;;;-5.30;79.42
75536;BME280;64119;52.070;20.804;2023-02-28T04:30:04;101986.94;;;-5.26;79.05
75536;BME280;64119;52.070;20.804;2023-02-28T04:32:32;101984.79;;;-5.23;78.90
75536;BME280;64119;52.070;20.804;2023-02-28T04:35:00;101984.14;;;-5.25;79.27
75536;BME280;64119;52.070;20.804;2023-02-28T04:37:28;101988.20;;;-5.28;78.88
75536;BME280;64119;52.070;20.804;2023-02-28T04:39:56;101989.36;;;-5.32;79.29
75536;BME280;64119;52.070;20.804;2023-02-28T04:42:23;101990.55;;;-5.37;79.41
75536;BME280;64119;52.070;20.804;2023-02-28T04:44:51;101987.39;;;-5.34;79.13
75536;BME280;64119;52.070;20.804;2023-02-28T04:47:19;101988.74;;;-5.34;79.84
75536;BME280;64119;52.070;20.804;2023-02-28T04:49:47;101989.69;;;-5.31;81.11
75536;BME280;64119;52.070;20.804;2023-02-28T04:52:15;101992.71;;;-5.34;80.22
75536;BME280;64119;52.070;20.804;2023-02-28T04:54:43;101991.30;;;-5.33;79.50
75536;BME280;64119;52.070;20.804;2023-02-28T04:57:11;101989.86;;;-5.31;79.24
75536;BME280;64119;52.070;20.804;2023-02-28T04:59:38;101995.92;;;-5.32;80.78
75536;BME280;64119;52.070;20.804;2023-02-28T05:02:06;101997.23;;;-5.35;79.95
75536;BME280;64119;52.070;20.804;2023-02-28T05:04:35;101995.73;;;-5.31;78.29
75536;BME280;64119;52.070;20.804;2023-02-28T05:07:03;101996.09;;;-5.32;78.54
75536;BME280;64119;52.070;20.804;2023-02-28T05:09:31;101999.22;;;-5.32;78.31
75536;BME280;64119;52.070;20.804;2023-02-28T05:12:00;102000.02;;;-5.30;78.51
75536;BME280;64119;52.070;20.804;2023-02-28T05:14:28;102000.91;;;-5.31;78.30
75536;BME280;64119;52.070;20.804;2023-02-28T05:16:56;102004.02;;;-5.32;78.44
75536;BME280;64119;52.070;20.804;2023-02-28T05:19:24;102001.29;;;-5.32;78.23
75536;BME280;64119;52.070;20.804;2023-02-28T05:21:53;102005.08;;;-5.38;80.11
75536;BME280;64119;52.070;20.804;2023-02-28T05:24:21;102006.09;;;-5.49;80.86
75536;BME280;64119;52.070;20.804;2023-02-28T05:26:53;102009.13;;;-5.52;81.11
75536;BME280;64119;52.070;20.804;2023-02-28T05:29:22;102010.63;;;-5.50;80.95
75536;BME280;64119;52.070;20.804;2023-02-28T05:31:49;102006.20;;;-5.52;81.22
75536;BME280;64119;52.070;20.804;2023-02-28T05:34:17;102013.10;;;-5.52;81.82
75536;BME280;64119;52.070;20.804;2023-02-28T05:36:45;102010.91;;;-5.54;82.10
75536;BME280;64119;52.070;20.804;2023-02-28T05:39:13;102014.36;;;-5.54;81.80
75536;BME280;64119;52.070;20.804;2023-02-28T05:41:42;102019.47;;;-5.58;81.30
75536;BME280;64119;52.070;20.804;2023-02-28T05:44:12;102026.84;;;-5.62;82.38
75536;BME280;64119;52.070;20.804;2023-02-28T05:46:40;102028.52;;;-5.60;81.84
75536;BME280;64119;52.070;20.804;2023-02-28T05:49:08;102029.53;;;-5.60;82.80
75536;BME280;64119;52.070;20.804;2023-02-28T05:51:36;102034.17;;;-5.60;82.64
75536;BME280;64119;52.070;20.804;2023-02-28T05:54:07;102037.69;;;-5.56;81.67
75536;BME280;64119;52.070;20.804;2023-02-28T05:56:35;102043.00;;;-5.55;82.94
75536;BME280;64119;52.070;20.804;2023-02-28T05:59:05;102041.91;;;-5.54;81.84
75536;BME280;64119;52.070;20.804;2023-02-28T06:04:08;102044.30;;;-5.53;82.61
75536;BME280;64119;52.070;20.804;2023-02-28T06:06:49;102043.73;;;-5.45;82.25
75536;BME280;64119;52.070;20.804;2023-02-28T06:09:18;102039.04;;;-5.39;81.96
75536;BME280;64119;52.070;20.804;2023-02-28T06:11:46;102041.31;;;-5.34;82.82
75536;BME280;64119;52.070;20.804;2023-02-28T06:14:18;102046.39;;;-5.31;83.72
75536;BME280;64119;52.070;20.804;2023-02-28T06:16:47;102049.48;;;-5.24;83.45
75536;BME280;64119;52.070;20.804;2023-02-28T06:19:15;102050.25;;;-5.16;82.58
75536;BME280;64119;52.070;20.804;2023-02-28T06:21:43;102054.92;;;-5.05;82.13
75536;BME280;64119;52.070;20.804;2023-02-28T06:24:10;102051.06;;;-4.93;81.28
75536;BME280;64119;52.070;20.804;2023-02-28T06:26:38;102047.21;;;-4.81;82.12
75536;BME280;64119;52.070;20.804;2023-02-28T06:29:06;102046.48;;;-4.68;80.96
75536;BME280;64119;52.070;20.804;2023-02-28T06:31:34;102047.63;;;-4.57;80.93
75536;BME280;64119;52.070;20.804;2023-02-28T06:34:02;102050.98;;;-4.44;80.68
75536;BME280;64119;52.070;20.804;2023-02-28T06:36:30;102048.10;;;-4.31;80.96
75536;BME280;64119;52.070;20.804;2023-02-28T06:38:58;102049.52;;;-4.17;80.78
75536;BME280;64119;52.070;20.804;2023-02-28T06:41:26;102049.19;;;-4.03;80.41
75536;BME280;64119;52.070;20.804;2023-02-28T06:43:55;102046.13;;;-3.90;80.80
75536;BME280;64119;52.070;20.804;2023-02-28T06:46:23;102047.52;;;-3.76;79.07
75536;BME280;64119;52.070;20.804;2023-02-28T06:48:51;102046.31;;;-3.62;79.42
75536;BME280;64119;52.070;20.804;2023-02-28T06:51:20;102048.08;;;-3.49;79.29
75536;BME280;64119;52.070;20.804;2023-02-28T06:53:50;102048.52;;;-3.34;80.42
75536;BME280;64119;52.070;20.804;2023-02-28T06:56:19;102048.52;;;-3.17;79.90
75536;BME280;64119;52.070;20.804;2023-02-28T06:58:49;102051.12;;;-2.99;81.18
75536;BME280;64119;52.070;20.804;2023-02-28T07:01:17;102044.58;;;-2.83;80.57
75536;BME280;64119;52.070;20.804;2023-02-28T07:03:46;102041.95;;;-2.66;81.01
75536;BME280;64119;52.070;20.804;2023-02-28T07:06:14;102038.61;;;-2.48;80.44
75536;BME280;64119;52.070;20.804;2023-02-28T07:08:41;102037.13;;;-2.30;80.54
75536;BME280;64119;52.070;20.804;2023-02-28T07:11:09;102037.96;;;-2.14;79.73
75536;BME280;64119;52.070;20.804;2023-02-28T07:13:37;102034.91;;;-1.95;79.57
75536;BME280;64119;52.070;20.804;2023-02-28T07:16:08;102033.88;;;-1.76;78.32
75536;BME280;64119;52.070;20.804;2023-02-28T07:18:38;102031.37;;;-1.52;77.41
75536;BME280;64119;52.070;20.804;2023-02-28T07:21:08;102032.98;;;-1.27;76.57
75536;BME280;64119;52.070;20.804;2023-02-28T07:23:38;102031.89;;;-1.04;76.03
75536;BME280;64119;52.070;20.804;2023-02-28T07:26:07;102031.92;;;-0.81;74.89
75536;BME280;64119;52.070;20.804;2023-02-28T07:28:35;102033.09;;;-0.55;74.22
75536;BME280;64119;52.070;20.804;2023-02-28T07:31:05;102035.00;;;-0.31;72.97
75536;BME280;64119;52.070;20.804;2023-02-28T07:33:33;102031.05;;;-0.09;70.56
75536;BME280;64119;52.070;20.804;2023-02-28T07:36:03;102036.83;;;0.14;72.32
75536;BME280;64119;52.070;20.804;2023-02-28T07:38:36;102039.63;;;0.39;71.44
75536;BME280;64119;52.070;20.804;2023-02-28T07:41:05;102037.27;;;0.66;72.18
75536;BME280;64119;52.070;20.804;2023-02-28T07:43:33;102040.45;;;0.87;69.01
75536;BME280;64119;52.070;20.804;2023-02-28T07:46:07;102037.09;;;1.15;72.26
75536;BME280;64119;52.070;20.804;2023-02-28T07:48:35;102037.85;;;1.56;69.85
75536;BME280;64119;52.070;20.804;2023-02-28T07:51:03;102028.63;;;1.87;70.39
75536;BME280;64119;52.070;20.804;2023-02-28T07:53:31;102029.09;;;2.08;69.58
75536;BME280;64119;52.070;20.804;2023-02-28T07:56:00;102031.94;;;2.41;70.15
75536;BME280;64119;52.070;20.804;2023-02-28T07:58:29;102034.98;;;2.62;67.99
75536;BME280;64119;52.070;20.804;2023-02-28T08:01:04;102036.12;;;2.91;67.04
75536;BME280;64119;52.070;20.804;2023-02-28T08:03:32;102032.14;;;3.19;64.24
75536;BME280;64119;52.070;20.804;2023-02-28T08:06:02;102031.23;;;3.35;65.45
75536;BME280;64119;52.070;20.804;2023-02-28T08:08:30;102031.02;;;3.54;62.76
75536;BME280;64119;52.070;20.804;2023-02-28T08:11:00;102027.43;;;3.66;62.89
75536;BME280;64119;52.070;20.804;2023-02-28T08:13:29;102025.42;;;3.87;62.28
75536;BME280;64119;52.070;20.804;2023-02-28T08:15:57;102024.95;;;4.17;62.86
75536;BME280;64119;52.070;20.804;2023-02-28T08:18:25;102020.26;;;4.31;59.85
75536;BME280;64119;52.070;20.804;2023-02-28T08:20:54;102023.64;;;4.55;61.20
75536;BME280;64119;52.070;20.804;2023-02-28T08:23:21;102022.72;;;4.94;60.29
75536;BME280;64119;52.070;20.804;2023-02-28T08:25:53;102019.61;;;5.23;57.41
75536;BME280;64119;52.070;20.804;2023-02-28T08:28:22;102020.44;;;5.31;53.85
75536;BME280;64119;52.070;20.804;2023-02-28T08:30:53;102017.39;;;5.44;55.92
75536;BME280;64119;52.070;20.804;2023-02-28T08:33:22;102010.18;;;5.67;55.16
75536;BME280;64119;52.070;20.804;2023-02-28T08:35:55;102011.58;;;5.83;55.03
75536;BME280;64119;52.070;20.804;2023-02-28T08:38:23;102009.73;;;5.91;55.17
75536;BME280;64119;52.070;20.804;2023-02-28T08:40:58;102014.27;;;5.84;50.64
75536;BME280;64119;52.070;20.804;2023-02-28T08:43:27;102010.58;;;5.89;53.39
75536;BME280;64119;52.070;20.804;2023-02-28T08:45:55;102007.31;;;6.00;51.24
75536;BME280;64119;52.070;20.804;2023-02-28T08:48:28;102007.14;;;6.31;51.76
75536;BME280;64119;52.070;20.804;2023-02-28T08:51:07;102004.76;;;6.52;50.12
75536;BME280;64119;52.070;20.804;2023-02-28T08:53:37;102006.09;;;6.72;50.23
75536;BME280;64119;52.070;20.804;2023-02-28T08:56:09;102006.65;;;6.81;50.73
75536;BME280;64119;52.070;20.804;2023-02-28T08:58:37;102002.45;;;6.97;49.78
75536;BME280;64119;52.070;20.804;2023-02-28T09:01:25;102000.25;;;7.15;48.92
75536;BME280;64119;52.070;20.804;2023-02-28T09:03:56;102005.20;;;7.52;48.93
75536;BME280;64119;52.070;20.804;2023-02-28T09:06:26;102009.52;;;7.82;49.62
75536;BME280;64119;52.070;20.804;2023-02-28T09:08:58;102006.38;;;7.94;46.19
75536;BME280;64119;52.070;20.804;2023-02-28T09:11:28;102006.03;;;8.14;47.95
75536;BME280;64119;52.070;20.804;2023-02-28T09:13:57;102010.35;;;8.46;46.85
75536;BME280;64119;52.070;20.804;2023-02-28T09:16:26;102015.58;;;8.62;44.74
75536;BME280;64119;52.070;20.804;2023-02-28T09:18:54;102013.05;;;8.75;44.83
75536;BME280;64119;52.070;20.804;2023-02-28T09:21:22;102015.38;;;8.98;43.58
75536;BME280;64119;52.070;20.804;2023-02-28T09:23:50;102021.19;;;8.90;41.28
75536;BME280;64119;52.070;20.804;2023-02-28T09:26:26;102019.33;;;8.74;41.92
75536;BME280;64119;52.070;20.804;2023-02-28T09:29:09;102021.30;;;8.98;42.54
75536;BME280;64119;52.070;20.804;2023-02-28T09:31:38;102018.16;;;9.04;41.65
75536;BME280;64119;52.070;20.804;2023-02-28T09:34:06;102020.84;;;9.05;42.07
75536;BME280;64119;52.070;20.804;2023-02-28T09:36:34;102020.08;;;9.19;39.43
75536;BME280;64119;52.070;20.804;2023-02-28T09:39:12;102017.77;;;9.46;42.46
75536;BME280;64119;52.070;20.804;2023-02-28T09:41:48;102023.27;;;9.60;40.22
75536;BME280;64119;52.070;20.804;2023-02-28T09:44:26;102028.05;;;9.65;38.75
75536;BME280;64119;52.070;20.804;2023-02-28T09:47:00;102024.47;;;9.71;38.42
75536;BME280;64119;52.070;20.804;2023-02-28T09:49:40;102025.48;;;9.87;40.47
75536;BME280;64119;52.070;20.804;2023-02-28T09:52:14;102023.00;;;9.92;39.16
75536;BME280;64119;52.070;20.804;2023-02-28T09:54:43;102016.95;;;10.02;39.60
75536;BME280;64119;52.070;20.804;2023-02-28T09:57:27;102016.94;;;10.02;38.70
75536;BME280;64119;52.070;20.804;2023-02-28T10:03:06;102017.00;;;9.60;37.78
75536;BME280;64119;52.070;20.804;2023-02-28T10:06:14;102014.64;;;9.06;37.61
75536;BME280;64119;52.070;20.804;2023-02-28T10:08:52;102017.98;;;9.21;39.63
75536;BME280;64119;52.070;20.804;2023-02-28T10:11:24;102015.34;;;9.65;39.68
75536;BME280;64119;52.070;20.804;2023-02-28T10:14:00;102016.30;;;9.70;38.42
75536;BME280;64119;52.070;20.804;2023-02-28T10:16:38;102011.69;;;10.01;39.18
75536;BME280;64119;52.070;20.804;2023-02-28T10:19:15;102013.92;;;10.06;37.48
75536;BME280;64119;52.070;20.804;2023-02-28T10:21:50;102010.34;;;9.91;38.66
75536;BME280;64119;52.070;20.804;2023-02-28T10:24:41;102010.52;;;9.86;38.77
75536;BME280;64119;52.070;20.804;2023-02-28T10:27:30;102011.88;;;9.90;37.88
75536;BME280;64119;52.070;20.804;2023-02-28T10:30:00;102011.67;;;9.92;38.64
75536;BME280;64119;52.070;20.804;2023-02-28T10:32:32;102009.16;;;10.04;38.31
75536;BME280;64119;52.070;20.804;2023-02-28T10:35:11;102009.67;;;9.78;37.99
75536;BME280;64119;52.070;20.804;2023-02-28T10:37:42;102007.23;;;9.93;37.89
75536;BME280;64119;52.070;20.804;2023-02-28T10:43:05;102004.91;;;10.39;37.99
75536;BME280;64119;52.070;20.804;2023-02-28T10:45:34;102001.34;;;10.56;36.91
75536;BME280;64119;52.070;20.804;2023-02-28T10:48:30;102000.55;;;10.91;38.11
75536;BME280;64119;52.070;20.804;2023-02-28T10:50:58;102001.43;;;11.35;37.49
75536;BME280;64119;52.070;20.804;2023-02-28T11:03:50;101982.69;;;11.36;35.80
75536;BME280;64119;52.070;20.804;2023-02-28T11:06:21;101984.77;;;11.44;35.82
75536;BME280;64119;52.070;20.804;2023-02-28T11:08:55;101978.45;;;11.40;34.92
75536;BME280;64119;52.070;20.804;2023-02-28T11:11:26;101983.94;;;11.41;35.48
75536;BME280;64119;52.070;20.804;2023-02-28T11:14:02;101980.33;;;11.56;34.87
75536;BME280;64119;52.070;20.804;2023-02-28T11:16:35;101983.64;;;11.44;35.30
75536;BME280;64119;52.070;20.804;2023-02-28T11:19:06;101977.23;;;11.41;34.70
75536;BME280;64119;52.070;20.804;2023-02-28T11:21:50;101976.33;;;11.52;35.14
75536;BME280;64119;52.070;20.804;2023-02-28T11:24:31;101974.33;;;11.17;34.64
75536;BME280;64119;52.070;20.804;2023-02-28T11:27:01;101970.22;;;11.26;35.24
75536;BME280;64119;52.070;20.804;2023-02-28T11:29:31;101965.60;;;11.41;35.59
75536;BME280;64119;52.070;20.804;2023-02-28T11:34:33;101953.91;;;11.96;36.29
75536;BME280;64119;52.070;20.804;2023-02-28T11:37:01;101950.30;;;11.91;35.34
75536;BME280;64119;52.070;20.804;2023-02-28T11:39:33;101945.54;;;11.87;34.90
75536;BME280;64119;52.070;20.804;2023-02-28T11:44:52;101940.83;;;11.07;35.16
75536;BME280;64119;52.070;20.804;2023-02-28T11:47:42;101942.27;;;11.09;35.53
75536;BME280;64119;52.070;20.804;2023-02-28T11:53:13;101929.21;;;11.41;35.14
75536;BME280;64119;52.070;20.804;2023-02-28T11:55:48;101921.98;;;11.43;34.11
75536;BME280;64119;52.070;20.804;2023-02-28T12:06:45;101901.02;;;10.15;35.22
75536;BME280;64119;52.070;20.804;2023-02-28T12:18:27;101892.53;;;10.27;36.03
75536;BME280;64119;52.070;20.804;2023-02-28T12:21:06;101891.61;;;10.28;36.70
75536;BME280;64119;52.070;20.804;2023-02-28T12:23:58;101894.57;;;10.23;36.44
75536;BME280;64119;52.070;20.804;2023-02-28T12:26:46;101885.66;;;10.05;36.70
75536;BME280;64119;52.070;20.804;2023-02-28T12:29:24;101887.95;;;9.94;37.29
75536;BME280;64119;52.070;20.804;2023-02-28T12:32:18;101886.71;;;9.94;37.64
75536;BME280;64119;52.070;20.804;2023-02-28T12:34:50;101885.96;;;9.86;37.01
75536;BME280;64119;52.070;20.804;2023-02-28T12:37:25;101879.52;;;9.69;37.30
75536;BME280;64119;52.070;20.804;2023-02-28T12:40:01;101876.89;;;9.63;37.66
75536;BME280;64119;52.070;20.804;2023-02-28T12:42:38;101875.47;;;9.20;37.55
75536;BME280;64119;52.070;20.804;2023-02-28T12:45:10;101876.71;;;8.84;38.30
75536;BME280;64119;52.070;20.804;2023-02-28T12:47:40;101873.42;;;8.54;38.93
75536;BME280;64119;52.070;20.804;2023-02-28T12:50:10;101870.27;;;8.37;39.04
75536;BME280;64119;52.070;20.804;2023-02-28T12:52:51;101867.73;;;8.24;39.28
75536;BME280;64119;52.070;20.804;2023-02-28T13:06:34;101861.42;;;7.93;39.45
75536;BME280;64119;52.070;20.804;2023-02-28T13:09:11;101861.64;;;8.05;39.29
75536;BME280;64119;52.070;20.804;2023-02-28T13:11:47;101861.02;;;8.04;39.66
75536;BME280;64119;52.070;20.804;2023-02-28T13:19:29;101856.95;;;7.69;39.96
75536;BME280;64119;52.070;20.804;2023-02-28T13:21:58;101853.79;;;7.65;40.13
75536;BME280;64119;52.070;20.804;2023-02-28T13:24:41;101856.77;;;7.67;41.28
75536;BME280;64119;52.070;20.804;2023-02-28T13:29:39;101852.49;;;7.21;41.82
75536;BME280;64119;52.070;20.804;2023-02-28T13:34:42;101854.11;;;6.73;41.89
75536;BME280;64119;52.070;20.804;2023-02-28T13:39:49;101844.67;;;6.22;43.06
75536;BME280;64119;52.070;20.804;2023-02-28T13:42:35;101842.09;;;5.97;43.17
75536;BME280;64119;52.070;20.804;2023-02-28T13:47:39;101844.29;;;5.52;44.39
75536;BME280;64119;52.070;20.804;2023-02-28T13:50:37;101846.58;;;5.43;44.56
75536;BME280;64119;52.070;20.804;2023-02-28T13:56:07;101839.53;;;5.14;44.54
75536;BME280;64119;52.070;20.804;2023-02-28T13:58:46;101838.70;;;4.97;45.24
75536;BME280;64119;52.070;20.804;2023-02-28T14:07:00;101831.23;;;4.48;45.97
75536;BME280;64119;52.070;20.804;2023-02-28T14:09:34;101822.73;;;4.38;45.83
75536;BME280;64119;52.070;20.804;2023-02-28T14:17:56;101817.31;;;4.04;46.86
75536;BME280;64119;52.070;20.804;2023-02-28T14:20:29;101813.35;;;3.89;47.76
75536;BME280;64119;52.070;20.804;2023-02-28T14:25:47;101813.45;;;3.80;47.34
75536;BME280;64119;52.070;20.804;2023-02-28T14:31:09;101804.21;;;3.63;48.11
75536;BME280;64119;52.070;20.804;2023-02-28T14:34:03;101803.04;;;3.50;48.34
75536;BME280;64119;52.070;20.804;2023-02-28T14:36:36;101801.46;;;3.38;48.74
75536;BME280;64119;52.070;20.804;2023-02-28T14:39:12;101801.84;;;3.32;48.91
75536;BME280;64119;52.070;20.804;2023-02-28T14:41:43;101799.54;;;3.25;49.80
75536;BME280;64119;52.070;20.804;2023-02-28T14:44:19;101803.36;;;3.18;49.70
75536;BME280;64119;52.070;20.804;2023-02-28T14:46:56;101801.67;;;3.10;50.20
75536;BME280;64119;52.070;20.804;2023-02-28T14:49:29;101803.54;;;3.03;49.99
75536;BME280;64119;52.070;20.804;2023-02-28T14:54:30;101801.10;;;2.98;50.10
75536;BME280;64119;52.070;20.804;2023-02-28T14:56:58;101798.51;;;2.93;50.24
75536;BME280;64119;52.070;20.804;2023-02-28T14:59:29;101793.88;;;2.87;50.58
75536;BME280;64119;52.070;20.804;2023-02-28T15:02:21;101793.84;;;2.79;50.73
75536;BME280;64119;52.070;20.804;2023-02-28T15:04:57;101790.02;;;2.74;50.44
75536;BME280;64119;52.070;20.804;2023-02-28T15:07:26;101789.16;;;2.71;50.69
75536;BME280;64119;52.070;20.804;2023-02-28T15:12:41;101788.61;;;2.58;50.96
75536;BME280;64119;52.070;20.804;2023-02-28T15:15:14;101787.20;;;2.53;51.18
75536;BME280;64119;52.070;20.804;2023-02-28T15:17:49;101791.36;;;2.49;51.75